createdAt,value
2023-01-23T00:00:10.784Z,18.66
2023-01-23T00:01:10.733Z,18.76
2023-01-23T00:02:10.760Z,18.71
2023-01-23T00:03:10.694Z,18.72
2023-01-23T00:04:10.730Z,18.75
2023-01-23T00:54:34.351Z,18.63
2023-01-23T00:55:35.146Z,18.69
2023-01-23T00:56:35.092Z,18.66
2023-01-23T00:57:35.044Z,18.63
2023-01-23T00:58:34.952Z,18.71
2023-01-23T00:59:34.897Z,18.67
2023-01-23T01:00:34.839Z,18.66
2023-01-23T01:01:34.853Z,18.69
2023-01-23T01:02:34.773Z,18.67
2023-01-23T01:03:34.676Z,18.66
2023-01-23T01:04:34.615Z,18.64
2023-01-23T01:05:34.571Z,18.63
2023-01-23T01:06:34.529Z,18.71
2023-01-23T01:07:34.497Z,18.64
2023-01-23T01:08:34.422Z,18.72
2023-01-23T01:09:34.354Z,18.66
2023-01-23T01:10:34.419Z,18.72
2023-01-23T01:11:34.254Z,18.66
2023-01-23T01:12:34.304Z,18.66
2023-01-23T01:13:34.148Z,18.67
2023-01-23T01:14:34.103Z,18.64
2023-01-23T01:15:34.044Z,18.71
2023-01-23T01:16:34.063Z,18.67
2023-01-23T01:17:33.939Z,18.74
2023-01-23T01:18:33.898Z,18.67
2023-01-23T01:19:33.844Z,18.67
2023-01-23T01:20:33.795Z,18.69
2023-01-23T01:21:33.771Z,18.74
2023-01-23T01:22:33.683Z,18.72
2023-01-23T01:23:33.631Z,18.74
2023-01-23T01:24:33.570Z,18.66
2023-01-23T01:25:33.517Z,18.71
2023-01-23T01:26:33.596Z,18.72
2023-01-23T01:27:33.400Z,18.66
2023-01-23T01:28:33.407Z,18.63
2023-01-23T01:29:33.289Z,18.66
2023-01-23T01:30:33.320Z,18.66
2023-01-23T01:31:33.275Z,18.66
2023-01-23T01:32:33.116Z,18.71
2023-01-23T01:33:33.095Z,18.66
2023-01-23T01:34:32.998Z,18.63
2023-01-23T01:35:32.942Z,18.72
2023-01-23T01:36:32.887Z,18.61
2023-01-23T01:37:32.825Z,18.64
2023-01-23T01:38:32.762Z,18.64
2023-01-23T01:39:32.703Z,18.63
2023-01-23T01:40:32.647Z,18.67
2023-01-23T01:41:32.595Z,18.67
2023-01-23T01:42:32.649Z,18.66
2023-01-23T01:43:32.468Z,18.67
2023-01-23T01:44:32.421Z,18.67
2023-01-23T01:45:32.354Z,18.66
2023-01-23T01:46:32.370Z,18.62
2023-01-23T01:47:32.243Z,18.63
2023-01-23T01:48:32.184Z,18.64
2023-01-23T01:49:32.143Z,18.67
2023-01-23T01:50:32.061Z,18.67
2023-01-23T01:51:32.009Z,18.67
2023-01-23T01:52:31.945Z,18.64
2023-01-23T01:53:31.882Z,18.62
2023-01-23T01:54:31.835Z,18.64
2023-01-23T01:55:31.770Z,18.64
2023-01-23T01:56:31.718Z,18.67
2023-01-23T01:57:31.696Z,18.64
2023-01-23T01:58:31.724Z,18.67
2023-01-23T01:59:31.548Z,18.64
2023-01-23T02:00:31.534Z,18.64
2023-01-23T02:01:31.422Z,18.66
2023-01-23T02:02:31.394Z,18.66
2023-01-23T02:03:31.307Z,18.67
2023-01-23T02:04:31.234Z,18.61
2023-01-23T02:05:31.180Z,18.62
2023-01-23T02:06:31.141Z,18.62
2023-01-23T02:07:31.047Z,18.64
2023-01-23T02:08:30.991Z,18.61
2023-01-23T02:09:30.927Z,18.61
2023-01-23T02:10:30.869Z,18.61
2023-01-23T02:11:30.842Z,18.61
2023-01-23T02:12:31.488Z,18.64
2023-01-23T02:13:30.682Z,18.62
2023-01-23T02:14:30.745Z,18.61
2023-01-23T02:15:30.559Z,18.66
2023-01-23T02:16:30.566Z,18.59
2023-01-23T02:17:30.444Z,18.59
2023-01-23T02:18:30.376Z,18.64
2023-01-23T02:19:30.310Z,18.62
2023-01-23T02:20:30.266Z,18.61
2023-01-23T02:21:30.241Z,18.62
2023-01-23T02:22:30.121Z,18.59
2023-01-23T02:23:30.056Z,18.64
2023-01-23T02:24:29.991Z,18.63
2023-01-23T02:25:29.971Z,18.61
2023-01-23T02:26:29.869Z,18.64
2023-01-23T02:27:29.801Z,18.62
2023-01-23T02:28:29.735Z,18.59
2023-01-23T02:29:29.677Z,18.61
2023-01-23T02:30:29.734Z,18.64
2023-01-23T02:31:29.618Z,18.56
2023-01-23T02:32:29.528Z,18.59
2023-01-23T02:33:29.424Z,18.56
2023-01-23T02:34:29.362Z,18.61
2023-01-23T02:35:29.310Z,18.56
2023-01-23T02:36:29.279Z,18.61
2023-01-23T02:37:29.217Z,18.58
2023-01-23T02:38:29.132Z,18.59
2023-01-23T02:39:29.073Z,18.54
2023-01-23T02:40:29.024Z,18.61
2023-01-23T02:41:28.963Z,18.58
2023-01-23T02:42:28.939Z,18.56
2023-01-23T02:43:28.852Z,18.58
2023-01-23T02:44:28.842Z,18.54
2023-01-23T02:45:28.770Z,18.53
2023-01-23T02:46:28.802Z,18.53
2023-01-23T02:47:28.626Z,18.59
2023-01-23T02:48:28.577Z,18.56
2023-01-23T02:49:28.536Z,18.58
2023-01-23T02:50:28.456Z,18.54
2023-01-23T02:51:28.392Z,18.53
2023-01-23T02:52:28.367Z,18.56
2023-01-23T02:53:28.279Z,18.56
2023-01-23T02:54:28.218Z,18.56
2023-01-23T02:55:28.163Z,18.54
2023-01-23T02:56:28.114Z,18.56
2023-01-23T02:57:28.084Z,18.56
2023-01-23T02:58:27.994Z,18.58
2023-01-23T02:59:27.925Z,18.53
2023-01-23T03:00:27.868Z,18.56
2023-01-23T03:01:27.831Z,18.56
2023-01-23T03:02:28.034Z,18.51
2023-01-23T03:03:27.693Z,18.56
2023-01-23T03:04:27.653Z,18.51
2023-01-23T03:05:27.577Z,18.53
2023-01-23T03:06:27.548Z,18.57
2023-01-23T03:07:27.551Z,18.56
2023-01-23T03:08:27.392Z,18.54
2023-01-23T03:09:27.340Z,18.50
2023-01-23T03:10:27.289Z,18.53
2023-01-23T03:11:27.223Z,18.51
2023-01-23T03:12:27.235Z,18.56
2023-01-23T03:13:27.102Z,18.49
2023-01-23T03:14:27.039Z,18.46
2023-01-23T03:15:26.981Z,18.51
2023-01-23T03:16:26.928Z,18.50
2023-01-23T03:17:26.881Z,18.46
2023-01-23T03:18:26.908Z,18.49
2023-01-23T03:19:26.729Z,18.46
2023-01-23T03:20:26.680Z,18.51
2023-01-23T03:21:26.612Z,18.46
2023-01-23T03:22:26.552Z,18.46
2023-01-23T03:23:26.522Z,18.48
2023-01-23T03:24:26.425Z,18.50
2023-01-23T03:25:26.366Z,18.51
2023-01-23T03:26:26.312Z,18.48
2023-01-23T03:27:26.273Z,18.48
2023-01-23T03:28:26.254Z,18.48
2023-01-23T03:29:26.119Z,18.46
2023-01-23T03:30:26.057Z,18.51
2023-01-23T03:31:26.067Z,18.52
2023-01-23T03:32:25.943Z,18.44
2023-01-23T03:33:25.939Z,18.44
2023-01-23T03:34:25.933Z,18.46
2023-01-23T03:35:25.790Z,18.43
2023-01-23T03:36:25.724Z,18.46
2023-01-23T03:37:25.639Z,18.41
2023-01-23T03:38:25.573Z,18.38
2023-01-23T03:39:25.533Z,18.39
2023-01-23T03:40:25.473Z,18.41
2023-01-23T03:41:25.400Z,18.41
2023-01-23T03:42:25.349Z,18.43
2023-01-23T03:43:25.311Z,18.39
2023-01-23T03:44:25.205Z,18.41
2023-01-23T03:45:25.167Z,18.43
2023-01-23T03:46:25.078Z,18.41
2023-01-23T03:47:25.053Z,18.41
2023-01-23T03:48:24.964Z,18.37
2023-01-23T03:49:24.902Z,18.41
2023-01-23T03:50:24.949Z,18.39
2023-01-23T03:51:24.883Z,18.41
2023-01-23T03:52:24.709Z,18.43
2023-01-23T03:53:24.645Z,18.39
2023-01-23T03:54:24.600Z,18.39
2023-01-23T03:55:24.528Z,18.44
2023-01-23T03:56:24.465Z,18.38
2023-01-23T03:57:24.405Z,18.37
2023-01-23T03:58:24.367Z,18.39
2023-01-23T03:59:24.286Z,18.37
2023-01-23T04:00:24.222Z,18.38
2023-01-23T04:01:24.232Z,18.35
2023-01-23T04:02:24.209Z,18.33
2023-01-23T04:03:24.108Z,18.32
2023-01-23T04:04:23.993Z,18.38
2023-01-23T04:05:23.947Z,18.38
2023-01-23T04:06:23.990Z,18.35
2023-01-23T04:07:23.842Z,18.37
2023-01-23T04:08:23.793Z,18.38
2023-01-23T04:09:23.710Z,18.38
2023-01-23T04:10:23.661Z,18.43
2023-01-23T04:11:23.598Z,18.38
2023-01-23T04:12:23.548Z,18.35
2023-01-23T04:13:23.482Z,18.35
2023-01-23T04:14:23.433Z,18.35
2023-01-23T04:15:23.373Z,18.33
2023-01-23T04:16:23.349Z,18.33
2023-01-23T04:17:23.306Z,18.39
2023-01-23T04:18:23.210Z,18.33
2023-01-23T04:19:23.160Z,18.32
2023-01-23T04:20:23.196Z,18.35
2023-01-23T04:21:23.047Z,18.32
2023-01-23T04:22:23.147Z,18.28
2023-01-23T04:23:22.929Z,18.32
2023-01-23T04:24:22.876Z,18.35
2023-01-23T04:25:22.821Z,18.27
2023-01-23T04:26:22.798Z,18.30
2023-01-23T04:27:22.713Z,18.37
2023-01-23T04:28:22.652Z,18.27
2023-01-23T04:29:22.601Z,18.35
2023-01-23T04:30:22.928Z,18.33
2023-01-23T04:31:22.751Z,18.32
2023-01-23T04:32:22.452Z,18.25
2023-01-23T04:33:22.393Z,18.26
2023-01-23T04:34:22.349Z,18.28
2023-01-23T04:35:22.283Z,18.32
2023-01-23T04:36:22.266Z,18.30
2023-01-23T04:37:22.184Z,18.33
2023-01-23T04:38:22.280Z,18.28
2023-01-23T04:39:22.084Z,18.30
2023-01-23T04:40:22.311Z,18.27
2023-01-23T04:41:21.966Z,18.25
2023-01-23T04:42:21.899Z,18.28
2023-01-23T04:43:21.888Z,18.30
2023-01-23T04:44:21.827Z,18.28
2023-01-23T04:45:21.731Z,18.25
2023-01-23T04:46:21.780Z,18.30
2023-01-23T04:47:21.641Z,18.26
2023-01-23T04:48:21.579Z,18.30
2023-01-23T04:49:21.558Z,18.26
2023-01-23T04:50:21.769Z,18.30
2023-01-23T04:51:21.497Z,18.26
2023-01-23T04:52:22.043Z,18.23
2023-01-23T04:53:21.307Z,18.28
2023-01-23T04:54:21.305Z,18.25
2023-01-23T04:55:21.192Z,18.25
2023-01-23T04:56:21.130Z,18.28
2023-01-23T04:57:21.072Z,18.23
2023-01-23T04:58:21.024Z,18.25
2023-01-23T04:59:20.992Z,18.30
2023-01-23T05:00:21.196Z,18.23
2023-01-23T05:01:20.874Z,18.27
2023-01-23T05:02:20.792Z,18.19
2023-01-23T05:03:20.744Z,18.25
2023-01-23T05:04:20.686Z,18.20
2023-01-23T05:05:20.609Z,18.19
2023-01-23T05:06:20.554Z,18.25
2023-01-23T05:07:20.497Z,18.25
2023-01-23T05:08:20.432Z,18.30
2023-01-23T05:09:20.403Z,18.25
2023-01-23T05:10:20.695Z,18.22
2023-01-23T05:11:20.245Z,18.23
2023-01-23T05:12:20.186Z,18.22
2023-01-23T05:13:20.120Z,18.22
2023-01-23T05:14:20.061Z,18.23
2023-01-23T05:15:20.000Z,18.20
2023-01-23T05:16:19.966Z,18.27
2023-01-23T05:17:19.890Z,18.23
2023-01-23T05:18:19.823Z,18.20
2023-01-23T05:19:19.754Z,18.23
2023-01-23T05:20:20.033Z,18.23
2023-01-23T05:21:19.658Z,18.25
2023-01-23T05:22:19.568Z,18.22
2023-01-23T05:23:19.503Z,18.22
2023-01-23T05:24:19.453Z,18.22
2023-01-23T05:25:19.415Z,18.25
2023-01-23T05:26:19.446Z,18.22
2023-01-23T05:27:19.270Z,18.23
2023-01-23T05:28:19.206Z,18.19
2023-01-23T05:29:19.139Z,18.20
2023-01-23T05:30:19.420Z,18.23
2023-01-23T05:31:19.154Z,18.22
2023-01-23T05:32:18.978Z,18.20
2023-01-23T05:33:18.909Z,18.19
2023-01-23T05:34:18.840Z,18.25
2023-01-23T05:35:18.777Z,18.25
2023-01-23T05:36:18.836Z,18.22
2023-01-23T05:37:18.664Z,18.25
2023-01-23T05:38:18.608Z,18.25
2023-01-23T05:39:18.547Z,18.20
2023-01-23T05:40:18.835Z,18.20
2023-01-23T05:41:18.419Z,18.20
2023-01-23T05:42:18.487Z,18.19
2023-01-23T05:43:18.303Z,18.15
2023-01-23T05:44:18.248Z,18.19
2023-01-23T05:45:18.212Z,18.22
2023-01-23T05:46:18.290Z,18.23
2023-01-23T05:47:18.069Z,18.20
2023-01-23T05:48:18.009Z,18.15
2023-01-23T05:49:17.962Z,18.20
2023-01-23T05:50:18.133Z,18.17
2023-01-23T05:51:17.947Z,18.18
2023-01-23T05:52:17.795Z,18.20
2023-01-23T05:53:17.736Z,18.17
2023-01-23T05:54:17.686Z,18.15
2023-01-23T05:55:17.656Z,18.15
2023-01-23T05:56:17.589Z,18.17
2023-01-23T05:57:17.497Z,18.17
2023-01-23T05:58:17.551Z,18.17
2023-01-23T05:59:17.378Z,18.12
2023-01-23T06:00:17.425Z,18.17
2023-01-23T06:01:17.307Z,18.14
2023-01-23T06:02:17.279Z,18.14
2023-01-23T06:03:17.177Z,18.15
2023-01-23T06:04:17.070Z,18.14
2023-01-23T06:05:17.020Z,18.15
2023-01-23T06:06:16.960Z,18.14
2023-01-23T06:07:17.089Z,18.12
2023-01-23T06:08:16.860Z,18.12
2023-01-23T06:09:16.779Z,18.14
2023-01-23T06:10:16.724Z,18.17
2023-01-23T06:11:16.660Z,18.12
2023-01-23T06:12:16.598Z,18.15
2023-01-23T06:13:16.560Z,18.17
2023-01-23T06:14:16.600Z,18.14
2023-01-23T06:15:16.607Z,18.17
2023-01-23T06:16:16.471Z,18.10
2023-01-23T06:17:16.307Z,18.12
2023-01-23T06:18:16.233Z,18.10
2023-01-23T06:19:16.582Z,18.22
2023-01-23T06:20:16.117Z,18.19
2023-01-23T06:21:16.577Z,18.15
2023-01-23T06:22:16.002Z,18.26
2023-01-23T06:23:15.960Z,18.28
2023-01-23T06:24:15.878Z,18.22
2023-01-23T06:25:15.817Z,18.23
2023-01-23T06:26:15.762Z,18.23
2023-01-23T06:27:15.702Z,18.25
2023-01-23T06:28:16.088Z,18.28
2023-01-23T06:29:15.580Z,18.28
2023-01-23T06:30:15.637Z,18.30
2023-01-23T06:31:15.831Z,18.30
2023-01-23T06:32:15.445Z,18.32
2023-01-23T06:33:15.353Z,18.37
2023-01-23T06:34:15.294Z,18.39
2023-01-23T06:35:15.227Z,18.37
2023-01-23T06:36:15.169Z,18.44
2023-01-23T06:37:15.108Z,18.36
2023-01-23T06:38:15.045Z,18.38
2023-01-23T06:39:14.983Z,18.38
2023-01-23T06:40:14.931Z,18.38
2023-01-23T06:41:15.094Z,18.33
2023-01-23T06:42:14.805Z,18.40
2023-01-23T06:43:14.744Z,18.35
2023-01-23T06:44:15.092Z,18.39
2023-01-23T06:45:16.174Z,18.38
2023-01-23T06:46:14.799Z,18.40
2023-01-23T06:47:14.577Z,18.44
2023-01-23T06:48:14.507Z,18.65
2023-01-23T06:49:14.500Z,18.62
2023-01-23T06:50:14.421Z,18.84
2023-01-23T06:51:15.091Z,18.86
2023-01-23T06:52:14.300Z,18.99
2023-01-23T06:53:14.246Z,18.19
2023-01-23T06:54:14.211Z,17.48
2023-01-23T06:55:14.806Z,18.79
2023-01-23T06:56:14.077Z,19.46
2023-01-23T06:57:14.030Z,19.27
2023-01-23T06:58:17.190Z,19.30
2023-01-23T06:59:14.162Z,19.35
2023-01-23T07:00:13.882Z,19.29
2023-01-23T07:01:13.867Z,19.33
2023-01-23T07:02:13.909Z,19.16
2023-01-23T07:03:14.278Z,19.12
2023-01-23T07:04:14.206Z,19.17
2023-01-23T07:05:13.634Z,19.20
2023-01-23T07:06:13.590Z,19.17
2023-01-23T07:07:13.511Z,19.20
2023-01-23T07:08:13.461Z,19.24
2023-01-23T07:09:13.374Z,19.25
2023-01-23T07:10:13.314Z,19.24
2023-01-23T07:11:13.648Z,19.24
2023-01-23T07:12:13.217Z,19.21
2023-01-23T07:13:13.147Z,19.25
2023-01-23T07:14:13.781Z,19.27
2023-01-23T07:15:13.099Z,19.19
2023-01-23T07:16:13.045Z,19.22
2023-01-23T07:17:12.921Z,19.25
2023-01-23T07:18:12.991Z,19.22
2023-01-23T07:19:12.789Z,19.19
2023-01-23T07:20:13.217Z,19.22
2023-01-23T07:21:13.158Z,19.24
2023-01-23T07:22:13.025Z,19.22
2023-01-23T07:23:12.552Z,19.21
2023-01-23T07:24:12.492Z,19.21
2023-01-23T07:25:12.606Z,19.22
2023-01-23T07:26:12.705Z,19.21
2023-01-23T07:27:12.317Z,19.21
2023-01-23T07:28:12.260Z,19.27
2023-01-23T07:29:12.223Z,19.26
2023-01-23T07:30:12.136Z,19.24
2023-01-23T07:31:12.208Z,19.21
2023-01-23T07:32:12.115Z,19.26
2023-01-23T07:33:11.976Z,19.29
2023-01-23T07:34:12.074Z,19.26
2023-01-23T07:35:12.860Z,19.19
2023-01-23T07:36:11.812Z,19.23
2023-01-23T07:37:12.108Z,19.23
2023-01-23T07:38:11.698Z,19.18
2023-01-23T07:39:11.662Z,19.23
2023-01-23T07:40:11.591Z,19.21
2023-01-23T07:41:11.549Z,19.14
2023-01-23T07:42:11.736Z,19.21
2023-01-23T07:43:11.438Z,19.23
2023-01-23T07:44:11.378Z,19.19
2023-01-23T07:45:11.345Z,19.21
2023-01-23T07:46:11.338Z,19.19
2023-01-23T07:47:11.611Z,19.09
2023-01-23T07:48:11.223Z,19.15
2023-01-23T07:49:11.126Z,19.09
2023-01-23T07:50:11.215Z,19.15
2023-01-23T07:51:12.128Z,19.15
2023-01-23T07:52:11.114Z,19.18
2023-01-23T07:53:10.968Z,19.15
2023-01-23T07:54:10.869Z,19.16
2023-01-23T07:55:10.903Z,19.05
2023-01-23T07:56:11.117Z,19.09
2023-01-23T07:57:10.845Z,19.11
2023-01-23T07:58:10.651Z,19.07
2023-01-23T07:59:10.699Z,19.11
2023-01-23T08:00:10.534Z,19.08
2023-01-23T08:01:10.697Z,19.05
2023-01-23T08:02:10.427Z,19.08
2023-01-23T08:03:10.376Z,19.05
2023-01-23T08:04:10.360Z,19.05
2023-01-23T08:05:10.779Z,19.05
2023-01-23T08:06:10.738Z,19.05
2023-01-23T08:07:10.232Z,19.07
2023-01-23T08:08:14.056Z,19.08
2023-01-23T08:09:10.053Z,19.04
2023-01-23T08:10:09.998Z,19.04
2023-01-23T08:11:10.120Z,19.04
2023-01-23T08:12:09.919Z,19.07
2023-01-23T08:13:10.818Z,18.99
2023-01-23T08:14:09.760Z,18.99
2023-01-23T08:15:10.122Z,19.02
2023-01-23T08:16:11.458Z,19.02
2023-01-23T08:17:10.185Z,18.99
2023-01-23T08:18:09.623Z,19.04
2023-01-23T08:19:09.487Z,18.97
2023-01-23T08:20:09.413Z,19.02
2023-01-23T08:21:09.351Z,19.00
2023-01-23T08:22:09.415Z,19.04
2023-01-23T08:23:09.624Z,19.00
2023-01-23T08:24:09.189Z,18.97
2023-01-23T08:25:09.125Z,18.99
2023-01-23T08:26:09.070Z,18.92
2023-01-23T08:27:09.025Z,18.99
2023-01-23T08:28:09.134Z,18.97
2023-01-23T08:29:08.909Z,18.98
2023-01-23T08:30:08.842Z,18.92
2023-01-23T08:31:08.989Z,18.97
2023-01-23T08:32:08.772Z,18.94
2023-01-23T08:33:09.141Z,18.92
2023-01-23T08:34:08.657Z,18.93
2023-01-23T08:35:08.561Z,18.89
2023-01-23T08:36:11.236Z,18.93
2023-01-23T08:37:08.477Z,18.89
2023-01-23T08:38:08.528Z,18.90
2023-01-23T08:39:08.632Z,19.22
2023-01-23T08:40:08.287Z,19.60
2023-01-23T08:41:08.218Z,19.56
2023-01-23T08:42:08.391Z,19.76
2023-01-23T08:43:08.137Z,19.80
2023-01-23T08:44:08.034Z,19.89
2023-01-23T08:45:07.998Z,20.01
2023-01-23T08:46:07.996Z,20.14
2023-01-23T08:47:09.998Z,20.22
2023-01-23T08:48:08.082Z,20.43
2023-01-23T08:49:09.332Z,20.46
2023-01-23T08:50:07.673Z,20.56
2023-01-23T08:51:07.700Z,20.70
2023-01-23T08:52:07.557Z,20.88
2023-01-23T08:53:07.665Z,20.88
2023-01-23T08:54:07.554Z,20.93
2023-01-23T08:55:07.371Z,20.97
2023-01-23T08:56:07.379Z,21.03
2023-01-23T08:57:08.644Z,21.29
2023-01-23T08:58:07.705Z,21.31
2023-01-23T08:59:07.115Z,21.41
2023-01-23T09:00:08.055Z,21.27
2023-01-23T09:01:08.121Z,19.31
2023-01-23T09:02:07.148Z,18.84
2023-01-23T09:03:06.849Z,18.52
2023-01-23T09:04:06.930Z,18.13
2023-01-23T09:05:06.732Z,17.90
2023-01-23T09:06:06.681Z,17.74
2023-01-23T09:07:06.667Z,17.77
2023-01-23T09:08:06.681Z,17.93
2023-01-23T09:09:06.740Z,18.36
2023-01-23T09:10:07.275Z,18.99
2023-01-23T09:11:06.657Z,19.29
2023-01-23T09:12:06.350Z,19.65
2023-01-23T09:13:06.294Z,20.05
2023-01-23T09:14:06.224Z,19.99
2023-01-23T09:15:06.203Z,20.02
2023-01-23T09:16:06.193Z,20.15
2023-01-23T09:17:06.041Z,20.31
2023-01-23T09:18:05.988Z,20.28
2023-01-23T09:19:05.940Z,20.35
2023-01-23T09:20:05.855Z,20.43
2023-01-23T09:21:08.540Z,20.58
2023-01-23T09:22:05.734Z,20.62
2023-01-23T09:23:05.687Z,20.70
2023-01-23T09:24:05.610Z,20.80
2023-01-23T09:25:05.537Z,20.98
2023-01-23T09:26:05.596Z,20.98
2023-01-23T09:27:05.417Z,21.14
2023-01-23T09:28:05.354Z,21.27
2023-01-23T09:29:05.646Z,21.32
2023-01-23T09:30:05.230Z,21.43
2023-01-23T09:31:05.293Z,21.60
2023-01-23T09:32:05.241Z,21.60
2023-01-23T09:33:05.033Z,21.68
2023-01-23T09:34:05.011Z,21.73
2023-01-23T09:35:04.915Z,21.92
2023-01-23T09:36:04.839Z,21.94
2023-01-23T09:37:04.810Z,22.17
2023-01-23T09:38:04.703Z,22.18
2023-01-23T09:39:04.636Z,22.37
2023-01-23T09:40:04.583Z,22.43
2023-01-23T09:41:04.651Z,22.45
2023-01-23T09:42:06.432Z,22.54
2023-01-23T09:43:04.387Z,22.61
2023-01-23T09:44:04.326Z,22.79
2023-01-23T09:45:04.302Z,22.79
2023-01-23T09:46:04.799Z,22.84
2023-01-23T09:47:04.119Z,22.93
2023-01-23T09:48:04.065Z,22.98
2023-01-23T09:49:04.153Z,23.03
2023-01-23T09:50:03.939Z,23.18
2023-01-23T09:51:03.907Z,23.18
2023-01-23T09:52:03.815Z,23.37
2023-01-23T09:53:03.765Z,23.37
2023-01-23T09:54:03.672Z,23.31
2023-01-23T09:55:03.609Z,23.42
2023-01-23T09:56:03.547Z,23.45
2023-01-23T09:57:03.469Z,23.54
2023-01-23T09:58:03.653Z,23.56
2023-01-23T09:59:03.350Z,23.62
2023-01-23T10:00:03.257Z,24.21
2023-01-23T10:01:03.262Z,23.88
2023-01-23T10:02:03.189Z,24.00
2023-01-23T10:03:03.058Z,24.00
2023-01-23T10:04:03.183Z,24.00
2023-01-23T10:05:03.205Z,24.09
2023-01-23T10:06:02.856Z,24.13
2023-01-23T10:07:02.781Z,24.27
2023-01-23T10:08:03.195Z,24.27
2023-01-23T10:09:02.684Z,24.33
2023-01-23T10:10:02.581Z,24.33
2023-01-23T10:11:02.505Z,24.38
2023-01-23T10:12:02.450Z,24.79
2023-01-23T10:13:02.364Z,25.02
2023-01-23T10:14:02.428Z,25.22
2023-01-23T10:15:02.675Z,25.11
2023-01-23T10:16:02.357Z,25.24
2023-01-23T10:17:02.093Z,25.27
2023-01-23T10:18:02.033Z,25.14
2023-01-23T10:19:01.941Z,25.41
2023-01-23T10:20:02.173Z,25.01
2023-01-23T10:21:01.803Z,24.82
2023-01-23T10:22:01.729Z,25.06
2023-01-23T10:23:01.793Z,25.01
2023-01-23T10:24:01.591Z,25.06
2023-01-23T10:25:01.525Z,25.22
2023-01-23T10:26:01.684Z,25.32
2023-01-23T10:27:01.399Z,25.31
2023-01-23T10:28:01.345Z,25.27
2023-01-23T10:29:01.421Z,25.20
2023-01-23T10:30:01.828Z,25.25
2023-01-23T10:31:01.237Z,25.32
2023-01-23T10:32:01.447Z,25.33
2023-01-23T10:33:01.623Z,25.36
2023-01-23T10:34:03.514Z,25.35
2023-01-23T10:35:01.300Z,25.35
2023-01-23T10:36:01.659Z,25.39
2023-01-23T10:37:01.148Z,25.47
2023-01-23T10:38:00.677Z,25.48
2023-01-23T10:39:01.616Z,25.50
2023-01-23T10:40:00.680Z,25.42
2023-01-23T10:41:00.526Z,25.85
2023-01-23T10:42:02.921Z,25.55
2023-01-23T10:43:00.364Z,25.60
2023-01-23T10:44:00.291Z,25.60
2023-01-23T10:45:00.677Z,25.62
2023-01-23T10:46:00.919Z,25.62
2023-01-23T10:47:00.170Z,25.65
2023-01-23T10:48:12.192Z,25.62
2023-01-23T10:48:59.961Z,25.59
2023-01-23T10:50:00.198Z,25.60
2023-01-23T10:50:59.904Z,25.66
2023-01-23T10:51:59.845Z,25.92
2023-01-23T10:52:59.708Z,25.74
2023-01-23T10:54:04.524Z,25.72
2023-01-23T10:54:59.698Z,25.72
2023-01-23T10:55:59.510Z,25.74
2023-01-23T10:56:59.472Z,25.69
2023-01-23T10:57:59.365Z,25.68
2023-01-23T10:58:59.309Z,25.74
2023-01-23T10:59:59.699Z,25.74
2023-01-23T11:00:59.265Z,25.73
2023-01-23T11:01:59.273Z,25.79
2023-01-23T11:02:59.042Z,25.77
2023-01-23T11:03:58.960Z,25.80
2023-01-23T11:04:58.881Z,25.80
2023-01-23T11:05:58.801Z,25.81
2023-01-23T11:06:58.727Z,25.69
2023-01-23T11:07:58.705Z,25.79
2023-01-23T11:08:58.593Z,25.73
2023-01-23T11:09:58.537Z,25.79
2023-01-23T11:10:58.504Z,25.83
2023-01-23T11:11:58.384Z,25.95
2023-01-23T11:13:00.649Z,26.00
2023-01-23T11:13:58.233Z,25.88
2023-01-23T11:14:58.231Z,25.80
2023-01-23T11:15:58.134Z,25.90
2023-01-23T11:16:58.204Z,25.91
2023-01-23T11:17:58.335Z,26.01
2023-01-23T11:18:57.918Z,25.98
2023-01-23T11:19:57.815Z,26.15
2023-01-23T11:21:05.167Z,25.74
2023-01-23T11:21:57.656Z,26.13
2023-01-23T11:22:57.706Z,26.01
2023-01-23T11:23:57.515Z,26.09
2023-01-23T11:24:57.739Z,26.07
2023-01-23T11:25:57.386Z,25.96
2023-01-23T11:26:57.309Z,25.99
2023-01-23T11:27:57.240Z,25.82
2023-01-23T11:28:57.167Z,25.82
2023-01-23T11:29:57.098Z,25.75
2023-01-23T11:31:12.453Z,25.74
2023-01-23T11:31:57.074Z,25.70
2023-01-23T11:32:56.978Z,25.61
2023-01-23T11:33:56.959Z,25.61
2023-01-23T11:34:56.762Z,25.60
2023-01-23T11:35:56.710Z,25.52
2023-01-23T11:36:56.629Z,25.48
2023-01-23T11:37:56.564Z,25.48
2023-01-23T11:38:56.746Z,25.47
2023-01-23T11:39:56.431Z,25.37
2023-01-23T11:40:56.361Z,25.44
2023-01-23T11:41:56.280Z,25.38
2023-01-23T11:42:56.215Z,25.34
2023-01-23T11:43:56.477Z,25.26
2023-01-23T11:44:56.213Z,25.26
2023-01-23T11:45:56.036Z,25.26
2023-01-23T11:46:55.948Z,25.20
2023-01-23T11:47:55.890Z,25.15
2023-01-23T11:48:55.797Z,25.20
2023-01-23T11:49:56.339Z,25.12
2023-01-23T11:50:56.283Z,25.09
2023-01-23T11:51:55.607Z,25.08
2023-01-23T11:52:55.533Z,25.04
2023-01-23T11:53:55.502Z,25.02
2023-01-23T11:54:55.405Z,25.02
2023-01-23T11:55:55.335Z,25.00
2023-01-23T11:56:55.717Z,25.00
2023-01-23T11:57:55.198Z,24.91
2023-01-23T11:58:55.144Z,24.87
2023-01-23T11:59:55.078Z,24.85
2023-01-23T12:00:55.225Z,24.85
2023-01-23T12:02:03.015Z,24.82
2023-01-23T12:02:54.930Z,24.82
2023-01-23T12:03:54.900Z,24.79
2023-01-23T12:04:54.904Z,24.76
2023-01-23T12:06:03.047Z,24.73
2023-01-23T12:06:54.610Z,24.70
2023-01-23T12:07:54.546Z,24.67
2023-01-23T12:08:54.504Z,24.62
2023-01-23T12:09:54.423Z,24.67
2023-01-23T12:10:54.745Z,24.60
2023-01-23T12:11:58.025Z,24.58
2023-01-23T12:12:54.328Z,24.55
2023-01-23T12:13:54.113Z,24.54
2023-01-23T12:14:55.049Z,24.46
2023-01-23T12:15:54.268Z,24.46
2023-01-23T12:16:53.918Z,24.51
2023-01-23T12:17:53.853Z,24.49
2023-01-23T12:18:54.069Z,24.44
2023-01-23T12:19:53.724Z,24.41
2023-01-23T12:20:53.744Z,24.40
2023-01-23T12:21:53.722Z,24.43
2023-01-23T12:22:53.528Z,24.34
2023-01-23T12:23:53.471Z,24.35
2023-01-23T12:24:53.729Z,24.31
2023-01-23T12:25:53.343Z,24.29
2023-01-23T12:26:53.278Z,24.28
2023-01-23T12:27:53.240Z,24.23
2023-01-23T12:28:53.161Z,24.28
2023-01-23T12:29:53.079Z,24.29
2023-01-23T12:30:53.055Z,24.28
2023-01-23T12:31:53.076Z,24.20
2023-01-23T12:32:52.879Z,24.25
2023-01-23T12:33:52.823Z,24.29
2023-01-23T12:34:52.749Z,24.19
2023-01-23T12:35:52.730Z,24.20
2023-01-23T12:37:10.005Z,24.16
2023-01-23T12:37:52.680Z,24.17
2023-01-23T12:38:52.483Z,24.19
2023-01-23T12:39:52.414Z,24.14
2023-01-23T12:40:52.773Z,24.15
2023-01-23T12:41:52.285Z,24.12
2023-01-23T12:42:52.209Z,24.10
2023-01-23T12:43:54.242Z,24.08
2023-01-23T12:44:52.084Z,24.11
2023-01-23T12:45:52.254Z,24.09
2023-01-23T12:46:52.048Z,24.06
2023-01-23T12:47:51.914Z,24.06
2023-01-23T12:48:52.251Z,24.05
2023-01-23T12:49:51.765Z,23.97
2023-01-23T12:50:51.697Z,24.00
2023-01-23T12:51:52.646Z,23.97
2023-01-23T12:52:51.569Z,23.99
2023-01-23T12:53:51.900Z,23.98
2023-01-23T12:54:51.408Z,23.90
2023-01-23T12:55:51.761Z,23.84
2023-01-23T12:58:07.257Z,23.82
2023-01-23T12:58:51.270Z,23.81
2023-01-23T12:59:51.081Z,23.78
2023-01-23T13:00:51.067Z,23.82
2023-01-23T13:01:51.320Z,23.81
2023-01-23T13:02:50.884Z,23.79
2023-01-23T13:03:51.248Z,23.81
2023-01-23T13:04:50.773Z,23.73
2023-01-23T13:05:50.682Z,23.72
2023-01-23T13:06:50.807Z,23.65
2023-01-23T13:07:50.592Z,23.69
2023-01-23T13:09:02.641Z,23.72
2023-01-23T13:09:50.769Z,23.66
2023-01-23T13:10:50.351Z,23.67
2023-01-23T13:11:50.279Z,23.69
2023-01-23T13:12:50.215Z,23.59
2023-01-23T13:13:50.167Z,23.61
2023-01-23T13:15:34.345Z,23.57
2023-01-23T13:15:50.017Z,23.64
2023-01-23T13:16:50.031Z,23.59
2023-01-23T13:17:49.885Z,23.63
2023-01-23T13:18:49.825Z,23.61
2023-01-23T13:19:50.247Z,23.54
2023-01-23T13:20:50.054Z,23.55
2023-01-23T13:21:49.632Z,23.49
2023-01-23T13:22:49.561Z,23.54
2023-01-23T13:23:49.489Z,23.52
2023-01-23T13:24:49.854Z,23.53
2023-01-23T13:25:49.479Z,23.44
2023-01-23T13:26:49.284Z,23.49
2023-01-23T13:27:49.213Z,23.49
2023-01-23T13:28:49.181Z,23.52
2023-01-23T13:29:49.094Z,23.46
2023-01-23T13:30:49.249Z,23.40
2023-01-23T13:31:49.032Z,23.43
2023-01-23T13:32:50.725Z,23.38
2023-01-23T13:33:51.265Z,23.40
2023-01-23T13:34:48.779Z,23.38
2023-01-23T13:35:48.697Z,23.38
2023-01-23T13:36:48.865Z,23.38
2023-01-23T13:37:48.566Z,23.33
2023-01-23T13:38:48.492Z,23.37
2023-01-23T13:39:51.045Z,23.37
2023-01-23T13:40:48.376Z,23.27
2023-01-23T13:41:48.426Z,23.30